| time (UTC) | temp F | wind direction | speed MPH | gust MPH | rain 1hr in | rain 24hr in | rain mn in | humidity % | barometer mb |
| 20260506044553 | 47 | 280 | 0.0 | 0.0 | 0.01 | 0.54 | 0.01 | 93 | 1009.7 |
| 20260506044031 | 47 | 280 | 0.0 | 0.0 | 0.01 | 0.54 | 0.01 | 93 | 1009.6 |
| 20260506043513 | 47 | 280 | 0.0 | 0.0 | 0.00 | 0.53 | 0.00 | 93 | 1009.5 |
| 20260506043100 | 47 | 280 | 0.0 | 0.0 | 0.00 | 0.53 | 0.00 | 93 | 1009.4 |
| 20260506042536 | 47 | 280 | 0.0 | 0.0 | 0.00 | 0.53 | 0.00 | 93 | 1009.1 |
| 20260506042016 | 47 | 280 | 0.0 | 0.0 | 0.00 | 0.53 | 0.00 | 93 | 1009.1 |
| 20260506041553 | 47 | 280 | 0.0 | 0.0 | 0.00 | 0.53 | 0.00 | 93 | 1009.2 |
| 20260506041033 | 47 | 280 | 0.0 | 0.0 | 0.01 | 0.53 | 0.53 | 93 | 1009.0 |
| 20260506040513 | 47 | 280 | 0.0 | 0.0 | 0.01 | 0.53 | 0.53 | 93 | 1009.1 |
| 20260506040058 | 47 | 280 | 0.0 | 0.0 | 0.01 | 0.53 | 0.53 | 93 | 1009.0 |
| 20260506035523 | 48 | 280 | 0.0 | 0.0 | 0.02 | 0.53 | 0.53 | 93 | 1009.1 |
| 20260506035104 | 48 | 280 | 0.0 | 0.0 | 0.02 | 0.53 | 0.53 | 93 | 1009.1 |
| 20260506034602 | 48 | 280 | 0.0 | 0.0 | 0.02 | 0.53 | 0.53 | 93 | 1009.1 |
| 20260506034023 | 48 | 280 | 0.0 | 0.0 | 0.02 | 0.53 | 0.53 | 93 | 1009.3 |
| 20260506033507 | 48 | 280 | 0.0 | 0.0 | 0.03 | 0.53 | 0.53 | 93 | 1009.2 |
| 20260506033048 | 48 | 280 | 0.0 | 0.0 | 0.03 | 0.53 | 0.53 | 93 | 1009.2 |
| 20260506032528 | 48 | 280 | 0.0 | 0.0 | 0.03 | 0.53 | 0.53 | 93 | 1009.2 |
| 20260506032008 | 48 | 280 | 0.0 | 0.0 | 0.04 | 0.53 | 0.53 | 93 | 1009.4 |
| 20260506031554 | 48 | 280 | 0.0 | 0.0 | 0.04 | 0.53 | 0.53 | 93 | 1009.4 |
| 20260506031032 | 48 | 280 | 0.0 | 0.0 | 0.03 | 0.52 | 0.52 | 93 | 1009.3 |
| 20260506030511 | 48 | 280 | 0.0 | 0.0 | 0.04 | 0.52 | 0.52 | 93 | 1009.4 |
| 20260506030057 | 48 | 280 | 0.0 | 0.0 | 0.04 | 0.52 | 0.52 | 93 | 1009.6 |
| 20260506025518 | 48 | 280 | 0.0 | 0.0 | 0.04 | 0.51 | 0.51 | 93 | 1009.6 |
| 20260506025100 | 48 | 280 | 0.0 | 0.0 | 0.04 | 0.51 | 0.51 | 93 | 1009.7 |
| 20260506024549 | 49 | 280 | 0.0 | 0.0 | 0.04 | 0.51 | 0.51 | 93 | 1009.8 |
| 20260506024021 | 49 | 280 | 0.0 | 0.0 | 0.05 | 0.51 | 0.51 | 93 | 1009.9 |
| 20260506023500 | 49 | 280 | 0.0 | 0.0 | 0.04 | 0.50 | 0.50 | 93 | 1009.8 |
| 20260506023054 | 49 | 280 | 0.0 | 0.0 | 0.05 | 0.50 | 0.50 | 93 | 1009.7 |
| 20260506022524 | 49 | 280 | 0.0 | 0.0 | 0.05 | 0.50 | 0.50 | 93 | 1009.8 |
| 20260506022006 | 49 | 280 | 0.0 | 0.0 | 0.06 | 0.49 | 0.49 | 93 | 1009.7 |
| 20260506021548 | 49 | 280 | 0.0 | 0.0 | 0.07 | 0.49 | 0.49 | 93 | 1009.8 |
| 20260506021027 | 49 | 280 | 0.0 | 0.0 | 0.07 | 0.49 | 0.49 | 93 | 1009.6 |
| 20260506020507 | 49 | 280 | 0.0 | 0.0 | 0.07 | 0.48 | 0.48 | 92 | 1009.6 |
| 20260506020055 | 49 | 280 | 0.0 | 0.0 | 0.08 | 0.48 | 0.48 | 92 | 1009.8 |
| 20260506015514 | 49 | 280 | 0.0 | 0.0 | 0.08 | 0.47 | 0.47 | 93 | 1009.7 |
| 20260506015102 | 49 | 280 | 0.0 | 0.0 | 0.09 | 0.47 | 0.47 | 93 | 1009.8 |
| 20260506014538 | 49 | 280 | 0.0 | 0.0 | 0.09 | 0.47 | 0.47 | 93 | 1009.8 |
| 20260506014017 | 49 | 280 | 0.0 | 0.0 | 0.09 | 0.46 | 0.46 | 93 | 1009.9 |
| 20260506013601 | 49 | 280 | 0.0 | 0.0 | 0.09 | 0.46 | 0.46 | 92 | 1010.0 |
| 20260506013042 | 49 | 280 | 0.0 | 0.0 | 0.09 | 0.45 | 0.45 | 92 | 1009.9 |
| 20260506012520 | 49 | 280 | 0.0 | 0.0 | 0.09 | 0.44 | 0.44 | 93 | 1009.8 |
| 20260506012106 | 49 | 280 | 0.0 | 0.0 | 0.09 | 0.44 | 0.44 | 93 | 1009.8 |
| 20260506011545 | 49 | 280 | 0.0 | 0.0 | 0.08 | 0.42 | 0.42 | 92 | 1009.7 |
| 20260506011023 | 49 | 280 | 0.0 | 0.0 | 0.09 | 0.42 | 0.42 | 92 | 1009.5 |
| 20260506010502 | 49 | 280 | 0.0 | 0.0 | 0.09 | 0.41 | 0.41 | 92 | 1009.5 |
| 20260506010055 | 49 | 280 | 0.0 | 0.0 | 0.09 | 0.40 | 0.40 | 92 | 1009.5 |
| 20260506005508 | 49 | 280 | 0.0 | 0.0 | 0.08 | 0.39 | 0.39 | 92 | 1009.4 |
| 20260506005050 | 49 | 280 | 0.0 | 0.0 | 0.08 | 0.38 | 0.38 | 92 | 1009.5 |
| 20260506004532 | 49 | 280 | 0.0 | 0.0 | 0.07 | 0.37 | 0.37 | 92 | 1009.6 |
| 20260506004010 | 49 | 280 | 0.0 | 0.0 | 0.08 | 0.37 | 0.37 | 92 | 1009.1 |
| 20260506003554 | 49 | 280 | 0.0 | 0.0 | 0.08 | 0.37 | 0.37 | 92 | 1009.4 |
| 20260506003035 | 49 | 280 | 0.0 | 0.0 | 0.08 | 0.36 | 0.36 | 92 | 1009.5 |
| 20260506002518 | 49 | 280 | 0.0 | 0.0 | 0.08 | 0.35 | 0.35 | 92 | 1009.6 |
| 20260506002058 | 49 | 280 | 0.0 | 0.0 | 0.08 | 0.35 | 0.35 | 92 | 1009.6 |
| 20260506001541 | 49 | 280 | 0.0 | 0.0 | 0.08 | 0.34 | 0.34 | 92 | 1009.3 |
| 20260506001019 | 49 | 280 | 0.0 | 0.0 | 0.08 | 0.33 | 0.33 | 91 | 1009.2 |
| 20260506000604 | 49 | 280 | 0.0 | 0.0 | 0.08 | 0.32 | 0.32 | 91 | 1009.1 |
| 20260506000043 | 49 | 280 | 0.0 | 0.0 | 0.07 | 0.31 | 0.31 | 92 | 1009.1 |
| 20260505235504 | 49 | 280 | 0.0 | 0.0 | 0.08 | 0.31 | 0.31 | 92 | 1008.8 |
| 20260505235050 | 49 | 280 | 0.0 | 0.0 | 0.08 | 0.30 | 0.30 | 91 | 1009.0 |
| 20260505234529 | 49 | 280 | 0.0 | 0.0 | 0.09 | 0.30 | 0.28 | 91 | 1008.9 |
| 20260505234009 | 49 | 280 | 0.0 | 1.0 | 0.08 | 0.28 | 0.28 | 91 | 1008.7 |
| 20260505233552 | 49 | 280 | 0.0 | 1.0 | 0.09 | 0.28 | 0.28 | 91 | 1008.7 |
| 20260505233039 | 49 | 280 | 0.0 | 0.0 | 0.08 | 0.28 | 0.28 | 91 | 1008.7 |
| 20260505232511 | 49 | 280 | 0.0 | 0.0 | 0.08 | 0.27 | 0.27 | 91 | 1008.8 |
| 20260505232053 | 49 | 280 | 0.0 | 0.0 | 0.08 | 0.27 | 0.27 | 91 | 1008.7 |
| 20260505231534 | 49 | 280 | 0.0 | 0.0 | 0.08 | 0.26 | 0.26 | 91 | 1008.7 |
| 20260505231013 | 49 | 280 | 0.0 | 0.0 | 0.08 | 0.25 | 0.25 | 91 | 1008.4 |
| 20260505230557 | 49 | 280 | 0.0 | 0.0 | 0.08 | 0.24 | 0.24 | 91 | 1008.5 |
| 20260505230025 | 49 | 280 | 0.0 | 0.0 | 0.10 | 0.24 | 0.24 | 90 | 1008.7 |
| 20260505225603 | 49 | 280 | 0.0 | 0.0 | 0.10 | 0.23 | 0.23 | 90 | 1008.7 |
| 20260505225043 | 49 | 280 | 0.0 | 0.0 | 0.11 | 0.22 | 0.22 | 90 | 1008.7 |
| 20260505224522 | 49 | 280 | 0.0 | 2.0 | 0.11 | 0.21 | 0.21 | 90 | 1008.6 |
| 20260505224003 | 49 | 280 | 0.0 | 4.0 | 0.12 | 0.21 | 0.21 | 90 | 1008.7 |
| 20260505223547 | 49 | 280 | 0.0 | 4.0 | 0.12 | 0.20 | 0.20 | 90 | 1008.9 |
| 20260505223028 | 49 | 280 | 0.0 | 1.0 | 0.13 | 0.20 | 0.20 | 90 | 1009.0 |
| 20260505222508 | 49 | 280 | 0.0 | 5.0 | 0.13 | 0.19 | 0.19 | 90 | 1009.1 |
| 20260505222051 | 49 | 280 | 1.0 | 5.0 | 0.13 | 0.18 | 0.18 | 90 | 1009.1 |
| 20260505221530 | 49 | 286 | 1.0 | 5.0 | 0.14 | 0.18 | 0.18 | 89 | 1009.1 |
| 20260505221009 | 49 | 287 | 1.0 | 5.0 | 0.13 | 0.17 | 0.17 | 89 | 1009.0 |
| 20260505220553 | 49 | 264 | 1.0 | 5.0 | 0.12 | 0.15 | 0.15 | 89 | 1009.0 |
| 20260505220019 | 49 | 263 | 0.0 | 4.0 | 0.12 | 0.14 | 0.14 | 89 | 1009.0 |
| 20260505215603 | 49 | 263 | 0.0 | 2.0 | 0.12 | 0.13 | 0.13 | 89 | 1008.8 |
| 20260505215039 | 49 | 263 | 0.0 | 1.0 | 0.10 | 0.11 | 0.11 | 88 | 1008.7 |
| 20260505214521 | 49 | 263 | 0.0 | 2.0 | 0.09 | 0.10 | 0.10 | 88 | 1008.7 |
| 20260505214104 | 50 | 263 | 0.0 | 4.0 | 0.08 | 0.09 | 0.09 | 88 | 1008.8 |
| 20260505213543 | 50 | 263 | 0.0 | 6.0 | 0.08 | 0.08 | 0.08 | 87 | 1008.7 |
| 20260505213027 | 50 | 248 | 2.0 | 5.0 | 0.07 | 0.07 | 0.07 | 87 | 1008.6 |
| 20260505212503 | 50 | 302 | 0.0 | 4.0 | 0.06 | 0.06 | 0.06 | 86 | 1008.5 |
| 20260505212048 | 50 | 302 | 0.0 | 4.0 | 0.05 | 0.05 | 0.05 | 86 | 1008.5 |
| 20260505211528 | 50 | 301 | 0.0 | 8.0 | 0.04 | 0.04 | 0.04 | 84 | 1008.3 |
| 20260505211007 | 51 | 273 | 0.0 | 11.0 | 0.04 | 0.04 | 0.04 | 83 | 1007.9 |
| 20260505210550 | 51 | 273 | 0.0 | 11.0 | 0.03 | 0.03 | 0.03 | 82 | 1007.9 |
| 20260505210014 | 51 | 269 | 1.0 | 9.0 | 0.02 | 0.02 | 0.02 | 81 | 1008.2 |
| 20260505205557 | 52 | 253 | 2.0 | 10.0 | 0.01 | 0.01 | 0.01 | 80 | 1008.1 |
| 20260505205037 | 52 | 314 | 1.0 | 10.0 | 0.01 | 0.01 | 0.01 | 78 | 1007.9 |
| 20260505204516 | 53 | 277 | 2.0 | 11.0 | 0.01 | 0.01 | 0.01 | 76 | 1007.6 |
| 20260505204100 | 54 | 313 | 5.0 | 12.0 | 0.01 | 0.01 | 0.01 | 74 | 1007.8 |
| 20260505203541 | 55 | 315 | 3.0 | 12.0 | 0.00 | 0.00 | 0.00 | 72 | 1007.5 |
| 20260505203029 | 56 | 314 | 2.0 | 11.0 | 0.00 | 0.00 | 0.00 | 70 | 1007.2 |
| 20260505202604 | 57 | 308 | 3.0 | 10.0 | 0.00 | 0.00 | 0.00 | 68 | 1007.1 |
| 20260505202047 | 58 | 287 | 4.0 | 10.0 | 0.00 | 0.00 | 0.00 | 65 | 1006.9 |
| 20260505201524 | 59 | 284 | 0.0 | 9.0 | 0.00 | 0.00 | 0.00 | 65 | 1006.6 |
| 20260505201003 | 59 | 248 | 2.0 | 9.0 | 0.00 | 0.00 | 0.00 | 63 | 1006.3 |
| 20260505200548 | 60 | 284 | 0.0 | 10.0 | 0.00 | 0.00 | 0.00 | 64 | 1006.3 |
| 20260505200010 | 60 | 281 | 4.0 | 10.0 | 0.00 | 0.00 | 0.00 | 64 | 1006.3 |
| 20260505195553 | 60 | 283 | 2.0 | 7.0 | 0.00 | 0.00 | 0.00 | 65 | 1006.2 |
| 20260505195033 | 60 | 307 | 0.0 | 9.0 | 0.00 | 0.00 | 0.00 | 67 | 1006.1 |
| 20260505194513 | 60 | 283 | 0.0 | 6.0 | 0.00 | 0.00 | 0.00 | 67 | 1006.0 |
| 20260505194057 | 60 | 282 | 1.0 | 6.0 | 0.00 | 0.00 | 0.00 | 68 | 1005.9 |
| 20260505193538 | 61 | 283 | 0.0 | 5.0 | 0.00 | 0.00 | 0.00 | 69 | 1005.8 |
| 20260505193018 | 60 | 283 | 0.0 | 5.0 | 0.00 | 0.00 | 0.00 | 69 | 1005.8 |
| 20260505192601 | 60 | 232 | 0.0 | 2.0 | 0.00 | 0.00 | 0.00 | 70 | 1005.8 |
| 20260505192041 | 60 | 232 | 0.0 | 2.0 | 0.00 | 0.00 | 0.00 | 69 | 1005.8 |
| 20260505191522 | 60 | 232 | 0.0 | 2.0 | 0.00 | 0.00 | 0.00 | 69 | 1005.9 |
| 20260505191001 | 60 | 232 | 0.0 | 4.0 | 0.00 | 0.00 | 0.00 | 69 | 1006.0 |
| 20260505190548 | 60 | 232 | 0.0 | 5.0 | 0.00 | 0.00 | 0.00 | 69 | 1006.0 |
| 20260505190003 | 60 | 232 | 1.0 | 5.0 | 0.00 | 0.00 | 0.00 | 69 | 1005.9 |
| 20260505185547 | 60 | 308 | 0.0 | 5.0 | 0.00 | 0.00 | 0.00 | 68 | 1005.9 |
| 20260505185027 | 60 | 311 | 0.0 | 6.0 | 0.00 | 0.00 | 0.00 | 68 | 1005.8 |
| 20260505184507 | 60 | 312 | 1.0 | 9.0 | 0.00 | 0.00 | 0.00 | 68 | 1006.0 |
| 20260505184051 | 61 | 288 | 3.0 | 9.0 | 0.00 | 0.00 | 0.00 | 67 | 1006.0 |
| 20260505183531 | 61 | 328 | 0.0 | 10.0 | 0.00 | 0.00 | 0.00 | 68 | 1005.8 |
| 20260505183011 | 61 | 272 | 1.0 | 10.0 | 0.00 | 0.00 | 0.00 | 68 | 1005.9 |
| 20260505182555 | 61 | 330 | 0.0 | 8.0 | 0.00 | 0.00 | 0.00 | 69 | 1005.9 |
| 20260505182034 | 61 | 277 | 0.0 | 6.0 | 0.00 | 0.00 | 0.00 | 69 | 1005.5 |
| 20260505181514 | 61 | 266 | 1.0 | 7.0 | 0.00 | 0.00 | 0.00 | 68 | 1005.6 |
| 20260505181101 | 61 | 292 | 1.0 | 6.0 | 0.00 | 0.00 | 0.00 | 69 | 1005.6 |
| 20260505180538 | 61 | 289 | 1.0 | 6.0 | 0.00 | 0.00 | 0.00 | 68 | 1005.5 |
| 20260505180122 | 61 | 243 | 0.0 | 8.0 | 0.00 | 0.00 | 0.00 | 69 | 1005.5 |
| 20260505175544 | 62 | 74 | 3.0 | 8.0 | 0.00 | 0.00 | 0.00 | 69 | 1005.3 |
| 20260505175028 | 62 | 250 | 1.0 | 8.0 | 0.00 | 0.00 | 0.00 | 69 | 1005.2 |
| 20260505174504 | 62 | 302 | 4.0 | 9.0 | 0.00 | 0.00 | 0.00 | 67 | 1005.1 |
| 20260505174048 | 63 | 277 | 2.0 | 8.0 | 0.00 | 0.00 | 0.00 | 66 | 1005.0 |
| 20260505173529 | 64 | 7 | 2.0 | 12.0 | 0.00 | 0.00 | 0.00 | 66 | 1005.0 |
| 20260505173008 | 65 | 270 | 6.0 | 14.0 | 0.00 | 0.00 | 0.00 | 65 | 1004.9 |
| 20260505172554 | 66 | 277 | 8.0 | 14.0 | 0.00 | 0.00 | 0.00 | 66 | 1004.9 |
| 20260505172032 | 66 | 269 | 6.0 | 13.0 | 0.00 | 0.00 | 0.00 | 66 | 1004.7 |
| 20260505171512 | 66 | 282 | 8.0 | 13.0 | 0.00 | 0.00 | 0.00 | 65 | 1004.7 |
| 20260505171056 | 66 | 269 | 3.0 | 13.0 | 0.00 | 0.00 | 0.00 | 65 | 1004.6 |
| 20260505170537 | 67 | 273 | 7.0 | 18.0 | 0.00 | 0.00 | 0.00 | 65 | 1004.5 |
| 20260505170123 | 66 | 256 | 7.0 | 18.0 | 0.00 | 0.00 | 0.00 | 65 | 1004.4 |
| 20260505165542 | 67 | 253 | 6.0 | 23.0 | 0.00 | 0.00 | 0.00 | 66 | 1004.5 |
| 20260505165022 | 67 | 257 | 8.0 | 23.0 | 0.00 | 0.00 | 0.00 | 65 | 1004.5 |
| 20260505164502 | 67 | 241 | 4.0 | 21.0 | 0.00 | 0.00 | 0.00 | 65 | 1004.5 |
| 20260505164046 | 67 | 245 | 9.0 | 21.0 | 0.00 | 0.00 | 0.00 | 63 | 1004.4 |
| 20260505163527 | 67 | 279 | 7.0 | 19.0 | 0.00 | 0.00 | 0.00 | 63 | 1004.3 |
| 20260505163010 | 67 | 228 | 7.0 | 16.0 | 0.00 | 0.00 | 0.00 | 63 | 1004.4 |
| 20260505162550 | 67 | 262 | 10.0 | 21.0 | 0.00 | 0.00 | 0.00 | 63 | 1004.0 |
| 20260505162030 | 68 | 252 | 10.0 | 21.0 | 0.00 | 0.00 | 0.00 | 62 | 1004.2 |
| 20260505161510 | 67 | 256 | 5.0 | 15.0 | 0.00 | 0.00 | 0.00 | 63 | 1003.7 |
| 20260505161054 | 67 | 217 | 4.0 | 18.0 | 0.00 | 0.00 | 0.00 | 64 | 1003.6 |
| 20260505160537 | 67 | 258 | 6.0 | 18.0 | 0.00 | 0.00 | 0.00 | 63 | 1003.7 |
| 20260505160121 | 67 | 221 | 6.0 | 18.0 | 0.00 | 0.00 | 0.00 | 63 | 1003.6 |
| 20260505153104 | 66 | 226 | 9.0 | 22.0 | 0.00 | 0.00 | 0.00 | 64 | 1004.3 |
| 20260505152545 | 66 | 278 | 8.0 | 24.0 | 0.00 | 0.00 | 0.00 | 64 | 1004.3 |
| 20260505152024 | 66 | 222 | 6.0 | 20.0 | 0.00 | 0.00 | 0.00 | 64 | 1004.4 |
| 20260505151503 | 66 | 275 | 9.0 | 24.0 | 0.00 | 0.00 | 0.00 | 65 | 1004.0 |
| 20260505151047 | 66 | 208 | 11.0 | 28.0 | 0.00 | 0.00 | 0.00 | 64 | 1003.8 |
| 20260505150527 | 66 | 264 | 8.0 | 28.0 | 0.00 | 0.00 | 0.00 | 65 | 1003.4 |
| 20260505150112 | 66 | 241 | 9.0 | 19.0 | 0.00 | 0.00 | 0.00 | 65 | 1003.4 |
| 20260505140526 | 64 | 212 | 11.0 | 23.0 | 0.00 | 0.00 | 0.00 | 67 | 1003.1 |
| 20260505140109 | 64 | 257 | 9.0 | 18.0 | 0.00 | 0.00 | 0.00 | 68 | 1002.9 |
| 20260505125004 | 63 | 243 | 6.0 | 15.0 | 0.00 | 0.00 | 0.00 | 71 | 1002.1 |
| 20260505124549 | 63 | 187 | 4.0 | 15.0 | 0.00 | 0.00 | 0.00 | 71 | 1002.1 |
| 20260505124027 | 62 | 256 | 5.0 | 12.0 | 0.00 | 0.00 | 0.00 | 71 | 1002.2 |
| 20260505123506 | 62 | 225 | 5.0 | 12.0 | 0.00 | 0.00 | 0.00 | 71 | 1002.5 |
| 20260505123051 | 63 | 225 | 4.0 | 12.0 | 0.00 | 0.00 | 0.00 | 71 | 1002.1 |
| 20260505122530 | 63 | 241 | 4.0 | 14.0 | 0.00 | 0.00 | 0.00 | 70 | 1002.2 |
| 20260505122010 | 62 | 232 | 6.0 | 14.0 | 0.00 | 0.00 | 0.00 | 70 | 1002.0 |
| 20260505121554 | 62 | 229 | 4.0 | 13.0 | 0.00 | 0.00 | 0.00 | 70 | 1001.8 |
| 20260505121034 | 62 | 243 | 6.0 | 13.0 | 0.00 | 0.00 | 0.00 | 70 | 1002.0 |
| 20260505120514 | 62 | 216 | 5.0 | 16.0 | 0.00 | 0.00 | 0.00 | 70 | 1002.0 |
| 20260505120114 | 62 | 242 | 5.0 | 16.0 | 0.00 | 0.00 | 0.00 | 70 | 1002.1 |
| 20260505115523 | 61 | 229 | 7.0 | 14.0 | 0.00 | 0.00 | 0.00 | 70 | 1002.2 |
| 20260505115104 | 61 | 231 | 4.0 | 13.0 | 0.00 | 0.00 | 0.00 | 70 | 1002.0 |
| 20260505114544 | 62 | 235 | 5.0 | 11.0 | 0.00 | 0.00 | 0.00 | 70 | 1002.0 |
| 20260505114024 | 62 | 244 | 3.0 | 13.0 | 0.00 | 0.00 | 0.00 | 70 | 1001.9 |
| 20260505113505 | 62 | 246 | 3.0 | 14.0 | 0.00 | 0.00 | 0.00 | 70 | 1001.9 |
| 20260505113048 | 62 | 208 | 3.0 | 14.0 | 0.00 | 0.00 | 0.00 | 70 | 1001.8 |
| 20260505112528 | 62 | 252 | 5.0 | 14.0 | 0.00 | 0.00 | 0.00 | 70 | 1001.6 |
| 20260505112008 | 62 | 239 | 4.0 | 15.0 | 0.00 | 0.00 | 0.00 | 70 | 1001.7 |
| 20260505111552 | 62 | 250 | 5.0 | 15.0 | 0.00 | 0.00 | 0.00 | 70 | 1001.7 |
| 20260505111033 | 62 | 243 | 4.0 | 13.0 | 0.00 | 0.00 | 0.00 | 70 | 1001.6 |
| 20260505110512 | 62 | 233 | 5.0 | 11.0 | 0.00 | 0.00 | 0.00 | 69 | 1001.6 |
| 20260505102010 | 62 | 245 | 6.0 | 20.0 | 0.00 | 0.00 | 0.00 | 69 | 1000.5 |
| 20260505101552 | 62 | 258 | 6.0 | 20.0 | 0.00 | 0.00 | 0.00 | 70 | 1000.6 |
| 20260505101030 | 62 | 250 | 4.0 | 14.0 | 0.00 | 0.00 | 0.00 | 70 | 1000.4 |
| 20260505100510 | 62 | 263 | 7.0 | 15.0 | 0.00 | 0.00 | 0.00 | 70 | 1000.5 |
| 20260505100055 | 62 | 238 | 5.0 | 15.0 | 0.00 | 0.00 | 0.00 | 70 | 1000.4 |
| 20260505095511 | 62 | 194 | 3.0 | 14.0 | 0.00 | 0.00 | 0.00 | 71 | 1000.3 |
| 20260505095055 | 62 | 248 | 5.0 | 14.0 | 0.00 | 0.00 | 0.00 | 71 | 1000.4 |
| 20260505094536 | 62 | 227 | 3.0 | 13.0 | 0.00 | 0.00 | 0.00 | 71 | 1000.3 |
| 20260505094016 | 62 | 233 | 4.0 | 13.0 | 0.00 | 0.00 | 0.00 | 72 | 1000.2 |
| 20260505093600 | 61 | 257 | 4.0 | 11.0 | 0.00 | 0.00 | 0.00 | 72 | 999.9 |
| 20260505093042 | 61 | 225 | 3.0 | 13.0 | 0.00 | 0.00 | 0.00 | 73 | 1000.2 |
| 20260505092520 | 61 | 274 | 3.0 | 9.0 | 0.00 | 0.00 | 0.00 | 74 | 1000.1 |
| 20260505092104 | 61 | 234 | 3.0 | 10.0 | 0.00 | 0.00 | 0.00 | 74 | 999.8 |
| 20260505091545 | 60 | 217 | 2.0 | 13.0 | 0.00 | 0.00 | 0.00 | 75 | 999.8 |
| 20260505091023 | 60 | 228 | 5.0 | 13.0 | 0.00 | 0.00 | 0.00 | 75 | 999.9 |
| 20260505090503 | 60 | 254 | 3.0 | 8.0 | 0.00 | 0.00 | 0.00 | 76 | 999.9 |
| 20260505090050 | 60 | 217 | 1.0 | 8.0 | 0.00 | 0.00 | 0.00 | 76 | 999.8 |
| 20260505085514 | 60 | 212 | 1.0 | 7.0 | 0.00 | 0.00 | 0.00 | 76 | 999.8 |
| 20260505085053 | 60 | 208 | 0.0 | 15.0 | 0.00 | 0.00 | 0.00 | 76 | 999.9 |
| 20260505084533 | 59 | 239 | 4.0 | 15.0 | 0.00 | 0.00 | 0.00 | 77 | 999.9 |
| 20260505084015 | 59 | 196 | 1.0 | 10.0 | 0.00 | 0.00 | 0.00 | 78 | 1000.0 |
| 20260505083554 | 59 | 224 | 2.0 | 10.0 | 0.00 | 0.00 | 0.00 | 79 | 1000.1 |
| 20260505083035 | 59 | 244 | 0.0 | 5.0 | 0.00 | 0.00 | 0.00 | 79 | 1000.1 |
| 20260505082515 | 59 | 223 | 0.0 | 2.0 | 0.00 | 0.00 | 0.00 | 79 | 1000.3 |
| 20260505082059 | 59 | 223 | 0.0 | 3.0 | 0.00 | 0.00 | 0.00 | 79 | 1000.4 |
| 20260505081541 | 59 | 223 | 0.0 | 5.0 | 0.00 | 0.00 | 0.00 | 80 | 1000.5 |
| 20260505081019 | 59 | 223 | 1.0 | 5.0 | 0.00 | 0.00 | 0.00 | 80 | 1000.4 |
| 20260505080602 | 59 | 202 | 0.0 | 8.0 | 0.00 | 0.00 | 0.00 | 80 | 1000.4 |
| 20260505080020 | 59 | 301 | 1.0 | 8.0 | 0.00 | 0.00 | 0.00 | 80 | 1000.4 |
| 20260505075601 | 59 | 260 | 2.0 | 6.0 | 0.00 | 0.00 | 0.00 | 80 | 1000.4 |
| 20260505075041 | 59 | 189 | 2.0 | 6.0 | 0.00 | 0.00 | 0.00 | 81 | 1000.4 |
| 20260505074521 | 59 | 195 | 2.0 | 8.0 | 0.00 | 0.00 | 0.00 | 80 | 1000.4 |
| 20260505074001 | 59 | 258 | 2.0 | 8.0 | 0.00 | 0.00 | 0.00 | 80 | 1000.4 |
| 20260505073546 | 59 | 233 | 1.0 | 7.0 | 0.00 | 0.00 | 0.00 | 80 | 1000.4 |
| 20260505073042 | 60 | 228 | 1.0 | 7.0 | 0.00 | 0.00 | 0.00 | 80 | 1000.4 |
| 20260505072506 | 60 | 232 | 2.0 | 7.0 | 0.00 | 0.00 | 0.00 | 79 | 1000.3 |
| 20260505072045 | 60 | 216 | 2.0 | 5.0 | 0.00 | 0.00 | 0.00 | 79 | 1000.4 |
| 20260505071526 | 61 | 204 | 1.0 | 5.0 | 0.00 | 0.00 | 0.00 | 77 | 1000.4 |
| 20260505071006 | 61 | 162 | 0.0 | 9.0 | 0.00 | 0.00 | 0.00 | 76 | 1000.4 |
| 20260505070550 | 62 | 246 | 1.0 | 9.0 | 0.00 | 0.00 | 0.00 | 76 | 1000.4 |
| 20260505070012 | 62 | 205 | 1.0 | 9.0 | 0.00 | 0.00 | 0.00 | 75 | 1000.5 |
| 20260505065556 | 62 | 221 | 1.0 | 9.0 | 0.00 | 0.00 | 0.00 | 74 | 1000.5 |
| 20260505065035 | 63 | 234 | 3.0 | 9.0 | 0.00 | 0.00 | 0.00 | 75 | 1000.7 |
| 20260505064532 | 63 | 237 | 2.0 | 9.0 | 0.00 | 0.00 | 0.00 | 75 | 1000.6 |
| 20260505064100 | 63 | 230 | 2.0 | 8.0 | 0.00 | 0.00 | 0.00 | 74 | 1000.6 |
| 20260505063541 | 63 | 225 | 2.0 | 8.0 | 0.00 | 0.00 | 0.00 | 74 | 1000.6 |
| 20260505063020 | 63 | 218 | 2.0 | 16.0 | 0.00 | 0.00 | 0.00 | 73 | 1000.8 |
| 20260505062604 | 63 | 281 | 5.0 | 16.0 | 0.00 | 0.00 | 0.00 | 74 | 1000.9 |
| 20260505062043 | 62 | 241 | 2.0 | 15.0 | 0.00 | 0.00 | 0.00 | 77 | 1000.7 |
| 20260505061535 | 62 | 274 | 5.0 | 15.0 | 0.00 | 0.00 | 0.00 | 77 | 1000.8 |
| 20260505061001 | 62 | 235 | 4.0 | 19.0 | 0.00 | 0.00 | 0.00 | 76 | 1001.2 |
| 20260505060542 | 62 | 206 | 4.0 | 19.0 | 0.00 | 0.00 | 0.00 | 75 | 1001.4 |
| 20260505060003 | 62 | 284 | 5.0 | 21.0 | 0.00 | 0.00 | 0.00 | 75 | 1001.7 |
| 20260505055547 | 62 | 218 | 7.0 | 14.0 | 0.00 | 0.00 | 0.00 | 75 | 1001.6 |
| 20260505055027 | 62 | 231 | 5.0 | 20.0 | 0.00 | 0.00 | 0.00 | 75 | 1001.4 |
| 20260505054507 | 62 | 262 | 6.0 | 20.0 | 0.00 | 0.00 | 0.00 | 75 | 1001.1 |
| 20260505054052 | 62 | 279 | 5.0 | 16.0 | 0.00 | 0.00 | 0.00 | 75 | 1001.1 |
| 20260505053531 | 63 | 259 | 5.0 | 16.0 | 0.00 | 0.00 | 0.00 | 71 | 1001.4 |
| 20260505053010 | 63 | 225 | 9.0 | 16.0 | 0.00 | 0.00 | 0.00 | 70 | 1001.4 |
| 20260505052556 | 63 | 259 | 3.0 | 13.0 | 0.00 | 0.00 | 0.00 | 69 | 1001.6 |
| 20260505052035 | 63 | 223 | 5.0 | 12.0 | 0.00 | 0.00 | 0.00 | 68 | 1001.8 |
| 20260505051517 | 63 | 246 | 4.0 | 12.0 | 0.00 | 0.00 | 0.00 | 67 | 1001.9 |
| 20260505051059 | 64 | 246 | 3.0 | 12.0 | 0.00 | 0.00 | 0.00 | 66 | 1002.0 |
| 20260505050538 | 64 | 231 | 2.0 | 13.0 | 0.00 | 0.00 | 0.00 | 65 | 1002.0 |